Time;durP1;ratioP1;P1;durP2;ratioP2;P2;SDS_P1;SDS_P2;PMS_P1;PMS_P2;Temp;Humidity;BMP_temperature;BMP_pressure;BME280_temperature;BME280_humidity;BME280_pressure;Samples;Min_cycle;Max_cycle;Signal;HPM_P1;HPM_P2
2023/08/07 00:00:19;;;;;;;0.80;0.60;;;;;;;16.11;71.14;100404.84;685008;28;1099;-76
2023/08/07 00:00:39;;;;;;;0.80;0.60;;;;;;;16.11;71.04;100403.06;680810;29;1324;-76
2023/08/07 00:01:12;;;;;;;0.80;0.70;;;;;;;16.16;70.95;100410.94;680566;29;788;-77
2023/08/07 00:01:33;;;;;;;0.80;0.70;;;;;;;16.07;71.26;100396.06;687508;28;1048;-77
2023/08/07 00:01:54;;;;;;;0.80;0.60;;;;;;;16.10;71.08;100398.69;685120;28;1558;-77
2023/08/07 00:02:14;;;;;;;0.80;0.60;;;;;;;16.18;70.94;100415.34;688728;28;1149;-77
2023/08/07 00:02:35;;;;;;;0.80;0.60;;;;;;;16.15;71.17;100407.47;687297;28;1301;-77
2023/08/07 00:02:56;;;;;;;0.80;0.60;;;;;;;16.13;71.22;100409.22;687837;28;897;-77
2023/08/07 00:03:18;;;;;;;0.80;0.60;;;;;;;16.16;71.13;100405.69;687117;28;1218;-76
2023/08/07 00:03:39;;;;;;;0.80;0.60;;;;;;;16.19;71.28;100403.06;692973;28;1055;-77
2023/08/07 00:03:59;;;;;;;0.80;0.60;;;;;;;16.14;70.87;100405.72;691709;28;1328;-78
2023/08/07 00:04:20;;;;;;;0.80;0.60;;;;;;;16.15;71.12;100399.56;689867;28;1587;-77
2023/08/07 00:04:41;;;;;;;0.80;0.60;;;;;;;16.17;70.89;100407.47;685560;28;1919;-77
2023/08/07 00:05:01;;;;;;;0.80;0.60;;;;;;;16.17;70.99;100410.09;679822;28;1133;-78
2023/08/07 00:05:22;;;;;;;0.80;0.60;;;;;;;16.24;70.82;100410.97;687443;28;1217;-76
2023/08/07 00:05:45;;;;;;;0.80;0.60;;;;;;;16.25;70.84;100407.47;688814;28;1280;-77
2023/08/07 00:06:05;;;;;;;0.80;0.60;;;;;;;16.11;71.06;100402.19;690501;28;1036;-77
2023/08/07 00:06:26;;;;;;;0.80;0.60;;;;;;;16.14;71.14;100400.44;687903;28;1087;-77
2023/08/07 00:06:47;;;;;;;0.80;0.60;;;;;;;16.14;71.12;100394.28;687316;28;1965;-77
2023/08/07 00:07:07;;;;;;;0.80;0.60;;;;;;;16.15;71.13;100393.41;682994;28;1080;-76
2023/08/07 00:07:28;;;;;;;0.80;0.60;;;;;;;16.21;70.86;100408.34;685939;28;1100;-78
2023/08/07 00:07:49;;;;;;;0.80;0.60;;;;;;;16.18;70.92;100402.19;684904;28;1555;-77
2023/08/07 00:08:09;;;;;;;0.80;0.60;;;;;;;16.28;70.93;100407.47;685351;28;982;-77
2023/08/07 00:08:31;;;;;;;0.80;0.60;;;;;;;16.24;70.85;100409.22;682194;28;1125;-77
2023/08/07 00:08:52;;;;;;;0.80;0.60;;;;;;;16.20;70.91;100403.94;678620;28;1230;-77
2023/08/07 00:09:13;;;;;;;0.80;0.60;;;;;;;16.17;70.83;100403.06;687203;28;1211;-77
2023/08/07 00:09:33;;;;;;;0.80;0.60;;;;;;;16.15;70.97;100407.47;684834;28;1111;-77
2023/08/07 00:09:54;;;;;;;0.80;0.60;;;;;;;16.18;71.03;100406.59;684475;28;1908;-77
2023/08/07 00:10:15;;;;;;;0.80;0.60;;;;;;;16.20;71.06;100403.94;680583;29;1441;-77
2023/08/07 00:10:37;;;;;;;0.80;0.60;;;;;;;16.20;70.75;100399.56;687564;28;1359;-77
2023/08/07 00:11:10;;;;;;;0.80;0.60;;;;;;;16.27;70.68;100405.72;687775;28;886;-76
2023/08/07 00:11:30;;;;;;;0.80;0.60;;;;;;;16.23;70.95;100402.16;682285;29;953;-77
2023/08/07 00:11:51;;;;;;;0.80;0.60;;;;;;;16.29;70.79;100406.59;682456;28;1142;-77
2023/08/07 00:12:12;;;;;;;0.80;0.60;;;;;;;16.26;70.79;100390.78;684047;28;1059;-76
2023/08/07 00:12:32;;;;;;;0.80;0.60;;;;;;;16.27;70.92;100410.97;679249;29;1260;-76
2023/08/07 00:12:53;;;;;;;0.80;0.60;;;;;;;16.23;70.79;100393.41;682351;29;1085;-76
2023/08/07 00:13:14;;;;;;;0.80;0.70;;;;;;;16.26;70.82;100398.69;681908;28;993;-76
2023/08/07 00:13:35;;;;;;;0.80;0.70;;;;;;;16.29;70.75;100401.34;685635;28;1102;-76
2023/08/07 00:13:57;;;;;;;0.80;0.70;;;;;;;16.26;70.67;100393.44;692899;28;856;-75
2023/08/07 00:14:18;;;;;;;0.80;0.65;;;;;;;16.24;70.47;100398.69;694571;28;1061;-75
2023/08/07 00:14:38;;;;;;;0.80;0.60;;;;;;;16.24;70.79;100390.78;689987;28;991;-77
2023/08/07 00:15:00;;;;;;;0.80;0.60;;;;;;;16.24;70.56;100395.16;687825;28;724;-77
2023/08/07 00:15:21;;;;;;;0.80;0.60;;;;;;;16.28;70.56;100394.28;686666;28;1782;-77
2023/08/07 00:15:42;;;;;;;0.80;0.60;;;;;;;16.22;70.68;100392.53;689557;28;1208;-76
2023/08/07 00:16:03;;;;;;;0.80;0.60;;;;;;;16.15;70.97;100396.94;679693;28;1757;-77
2023/08/07 00:16:23;;;;;;;0.80;0.60;;;;;;;16.15;70.82;100390.78;684769;28;1279;-77
2023/08/07 00:16:44;;;;;;;0.80;0.60;;;;;;;16.14;70.89;100405.72;682560;28;1056;-76
2023/08/07 00:17:05;;;;;;;0.80;0.60;;;;;;;16.04;71.04;100389.03;680701;29;1680;-77
2023/08/07 00:17:26;;;;;;;0.80;0.60;;;;;;;16.11;70.91;100400.44;688077;28;1099;-76
2023/08/07 00:17:46;;;;;;;0.80;0.60;;;;;;;16.08;71.07;100397.81;685303;28;1804;-77
2023/08/07 00:18:07;;;;;;;0.80;0.70;;;;;;;16.01;71.09;100389.06;685450;28;1399;-76
2023/08/07 00:18:29;;;;;;;0.80;0.70;;;;;;;16.08;71.09;100405.72;690597;28;1225;-77
2023/08/07 00:18:49;;;;;;;0.80;0.70;;;;;;;16.07;71.23;100403.97;685364;28;1378;-76
2023/08/07 00:19:11;;;;;;;0.80;0.77;;;;;;;16.07;71.15;100393.44;690827;28;1158;-76
2023/08/07 00:19:31;;;;;;;0.80;0.70;;;;;;;16.06;71.19;100396.06;685360;28;1939;-76
2023/08/07 00:19:52;;;;;;;0.80;0.70;;;;;;;16.07;71.17;100393.44;680895;28;946;-75
2023/08/07 00:20:12;;;;;;;0.80;0.60;;;;;;;16.04;71.23;100391.66;685023;28;1111;-76
2023/08/07 00:20:33;;;;;;;0.80;0.60;;;;;;;16.02;71.12;100389.91;685418;28;1060;-76
2023/08/07 00:20:53;;;;;;;0.80;0.60;;;;;;;15.95;71.38;100388.16;686176;28;1139;-77
2023/08/07 00:21:14;;;;;;;0.80;0.50;;;;;;;16.05;71.37;100400.47;685309;28;1287;-75
2023/08/07 00:21:35;;;;;;;0.80;0.50;;;;;;;16.03;71.37;100389.03;682725;29;1137;-76
2023/08/07 00:21:56;;;;;;;0.80;0.60;;;;;;;16.12;71.21;100398.69;680785;28;1377;-75
2023/08/07 00:22:17;;;;;;;0.80;0.60;;;;;;;16.01;71.30;100385.53;688139;28;1048;-77
2023/08/07 00:22:37;;;;;;;0.80;0.60;;;;;;;16.12;71.30;100404.81;685280;28;1185;-76
2023/08/07 00:22:58;;;;;;;0.80;0.70;;;;;;;16.10;71.09;100398.69;685527;28;792;-76
2023/08/07 00:23:18;;;;;;;0.80;0.70;;;;;;;16.03;71.20;100389.03;685144;28;2041;-76
2023/08/07 00:23:39;;;;;;;0.80;0.70;;;;;;;16.09;71.19;100398.69;685203;28;1326;-77
2023/08/07 00:23:59;;;;;;;0.80;0.60;;;;;;;16.15;71.28;100403.94;685589;28;1173;-76
2023/08/07 00:24:20;;;;;;;0.80;0.50;;;;;;;16.12;71.22;100402.19;683113;28;1587;-76
2023/08/07 00:24:41;;;;;;;0.80;0.60;;;;;;;16.09;71.37;100386.41;682176;28;1966;-76
2023/08/07 00:25:02;;;;;;;0.80;0.60;;;;;;;16.04;71.29;100388.16;686433;28;1356;-75
2023/08/07 00:25:23;;;;;;;0.80;0.60;;;;;;;16.06;71.15;100396.94;688027;28;1286;-76
2023/08/07 00:25:44;;;;;;;0.80;0.60;;;;;;;16.03;71.16;100389.91;687597;28;1098;-77
2023/08/07 00:26:04;;;;;;;0.80;0.60;;;;;;;16.08;71.18;100387.28;688522;28;1235;-76
2023/08/07 00:26:25;;;;;;;0.80;0.60;;;;;;;16.09;71.19;100399.56;687412;28;1662;-76
2023/08/07 00:26:46;;;;;;;0.80;0.57;;;;;;;16.09;71.03;100388.16;683249;28;1169;-76
2023/08/07 00:27:09;;;;;;;0.80;0.60;;;;;;;16.10;71.12;100388.16;683010;29;1037;-76
2023/08/07 00:27:30;;;;;;;0.80;0.70;;;;;;;16.08;71.12;100384.66;686022;28;1926;-76
2023/08/07 00:28:15;;;;;;;0.80;0.63;;;;;;;16.15;71.15;100403.94;685421;28;1316;-76
2023/08/07 00:28:35;;;;;;;0.80;0.60;;;;;;;16.06;71.47;100380.25;685711;28;1977;-77
2023/08/07 00:28:56;;;;;;;0.80;0.60;;;;;;;16.05;71.28;100389.94;680205;28;955;-75
2023/08/07 00:29:17;;;;;;;0.80;0.60;;;;;;;16.05;71.47;100392.56;682702;29;1115;-78
2023/08/07 00:29:40;;;;;;;0.80;0.50;;;;;;;15.99;71.32;100385.53;682618;28;1361;-76
2023/08/07 00:30:01;;;;;;;0.80;0.60;;;;;;;16.00;71.61;100381.16;687572;28;879;-77
2023/08/07 00:30:22;;;;;;;0.80;0.60;;;;;;;16.01;71.48;100388.16;685658;28;2052;-77
2023/08/07 00:30:42;;;;;;;0.80;0.60;;;;;;;16.03;71.44;100394.28;681795;29;1207;-76
2023/08/07 00:31:03;;;;;;;0.80;0.60;;;;;;;16.01;71.74;100401.31;687621;28;1122;-76
2023/08/07 00:31:24;;;;;;;0.80;0.70;;;;;;;15.99;71.55;100396.06;682937;28;1206;-77
2023/08/07 00:31:45;;;;;;;0.80;0.70;;;;;;;16.02;71.41;100393.44;690789;28;1114;-76
2023/08/07 00:32:06;;;;;;;0.80;0.70;;;;;;;15.96;71.60;100384.66;688179;28;1087;-76
2023/08/07 00:32:26;;;;;;;0.80;0.70;;;;;;;16.02;71.62;100389.91;685210;28;1139;-75
2023/08/07 00:32:47;;;;;;;0.80;0.68;;;;;;;16.06;71.67;100390.78;687950;28;1436;-75
2023/08/07 00:33:08;;;;;;;0.80;0.60;;;;;;;16.01;71.37;100390.78;686676;28;1120;-77
2023/08/07 00:33:28;;;;;;;0.80;0.60;;;;;;;16.01;71.58;100398.69;690684;28;1115;-76
2023/08/07 00:33:51;;;;;;;0.80;0.50;;;;;;;16.05;71.58;100392.56;692249;28;2021;-76
2023/08/07 00:34:12;;;;;;;0.80;0.50;;;;;;;16.04;71.53;100389.03;691040;28;1027;-77
2023/08/07 00:34:33;;;;;;;0.80;0.60;;;;;;;16.11;71.48;100391.66;687937;28;1066;-75
2023/08/07 00:34:53;;;;;;;0.80;0.70;;;;;;;16.07;71.46;100392.53;685380;28;1387;-77
2023/08/07 00:35:14;;;;;;;0.80;0.70;;;;;;;16.04;71.53;100385.50;688605;28;1078;-77
2023/08/07 00:35:35;;;;;;;0.80;0.68;;;;;;;16.07;71.54;100393.44;690094;28;988;-77
2023/08/07 00:35:56;;;;;;;0.80;0.60;;;;;;;16.03;71.32;100391.66;691045;28;799;-76
2023/08/07 00:36:17;;;;;;;0.80;0.60;;;;;;;16.10;71.48;100393.41;685350;28;1098;-77
2023/08/07 00:36:37;;;;;;;0.80;0.60;;;;;;;16.09;71.36;100388.16;685175;28;1173;-76
2023/08/07 00:36:58;;;;;;;0.80;0.60;;;;;;;16.04;71.62;100389.03;688155;28;1147;-77
2023/08/07 00:37:19;;;;;;;0.80;0.60;;;;;;;16.08;71.58;100394.28;682548;28;1849;-75
2023/08/07 00:37:39;;;;;;;0.80;0.50;;;;;;;16.04;71.51;100390.78;685213;28;948;-76
2023/08/07 00:38:00;;;;;;;0.80;0.50;;;;;;;16.13;71.30;100395.16;686488;28;1309;-77
2023/08/07 00:38:22;;;;;;;0.80;0.50;;;;;;;16.10;71.32;100390.78;685057;28;1216;-75
2023/08/07 00:38:42;;;;;;;0.80;0.60;;;;;;;16.12;71.20;100390.78;687640;28;1097;-76
2023/08/07 00:39:03;;;;;;;0.80;0.60;;;;;;;16.13;71.18;100393.44;688165;28;1011;-76
2023/08/07 00:39:25;;;;;;;0.80;0.60;;;;;;;16.11;71.33;100379.38;685450;28;1712;-77
2023/08/07 00:39:45;;;;;;;0.80;0.60;;;;;;;16.11;71.21;100384.63;690146;28;960;-77
2023/08/07 00:40:07;;;;;;;0.80;0.60;;;;;;;16.08;71.60;100382.03;685468;28;973;-78
2023/08/07 00:40:27;;;;;;;0.80;0.60;;;;;;;16.05;71.50;100389.94;687591;28;1782;-76
2023/08/07 00:40:48;;;;;;;0.80;0.60;;;;;;;16.06;71.57;100396.06;687980;28;1000;-75
2023/08/07 00:41:09;;;;;;;0.80;0.60;;;;;;;16.07;71.43;100384.63;685647;28;1609;-77
2023/08/07 00:41:30;;;;;;;0.80;0.60;;;;;;;16.12;71.42;100391.66;687873;28;1441;-75
2023/08/07 00:41:51;;;;;;;0.80;0.60;;;;;;;16.03;71.46;100389.03;690296;28;1044;-76
2023/08/07 00:42:12;;;;;;;0.80;0.60;;;;;;;16.08;71.69;100389.03;692892;28;1039;-76
2023/08/07 00:42:32;;;;;;;0.80;0.60;;;;;;;16.10;71.71;100396.03;690505;28;1119;-75
2023/08/07 00:42:53;;;;;;;0.80;0.60;;;;;;;16.12;71.52;100394.28;695232;28;1754;-75
2023/08/07 00:43:14;;;;;;;0.80;0.60;;;;;;;16.08;71.54;100386.38;690346;28;1118;-76
2023/08/07 00:43:34;;;;;;;0.80;0.60;;;;;;;16.10;71.50;100388.16;690588;28;942;-75
2023/08/07 00:43:55;;;;;;;0.80;0.70;;;;;;;16.15;71.50;100385.50;687116;28;1504;-75
2023/08/07 00:44:16;;;;;;;0.80;0.68;;;;;;;16.15;71.37;100391.66;690812;28;1031;-75
2023/08/07 00:44:36;;;;;;;0.80;0.60;;;;;;;16.12;71.52;100386.38;690463;28;1906;-75
2023/08/07 00:44:57;;;;;;;0.80;0.60;;;;;;;16.12;71.50;100383.75;682492;29;2000;-75
2023/08/07 00:45:18;;;;;;;0.80;0.50;;;;;;;16.16;71.35;100384.63;685585;28;1096;-76
2023/08/07 00:45:42;;;;;;;0.80;0.60;;;;;;;16.19;71.42;100400.44;687298;28;1051;-75
2023/08/07 00:46:03;;;;;;;0.80;0.60;;;;;;;16.21;71.44;100392.53;688997;28;1544;-75
2023/08/07 00:46:24;;;;;;;0.80;0.60;;;;;;;16.17;71.24;100389.91;688249;28;1032;-76
2023/08/07 00:46:46;;;;;;;0.80;0.60;;;;;;;16.11;71.42;100384.63;687029;28;1063;-76
2023/08/07 00:47:07;;;;;;;0.80;0.60;;;;;;;16.19;71.39;100395.16;685204;28;1994;-77
2023/08/07 00:47:28;;;;;;;0.80;0.70;;;;;;;16.12;71.31;100375.84;688041;28;1095;-76
2023/08/07 00:47:49;;;;;;;0.80;0.70;;;;;;;16.07;71.48;100387.28;688050;28;1047;-76
2023/08/07 00:48:11;;;;;;;0.80;0.60;;;;;;;16.13;71.79;100385.53;686457;28;1456;-76
2023/08/07 00:48:32;;;;;;;0.80;0.60;;;;;;;16.16;71.50;100395.16;687867;28;1139;-77
2023/08/07 00:48:53;;;;;;;0.80;0.60;;;;;;;16.05;71.77;100389.94;685637;28;1238;-78
2023/08/07 00:49:14;;;;;;;0.80;0.60;;;;;;;16.15;71.55;100389.03;687931;28;1807;-76
2023/08/07 00:49:35;;;;;;;0.80;0.60;;;;;;;16.17;71.46;100383.78;690367;28;1370;-77
2023/08/07 00:49:59;;;;;;;0.80;0.60;;;;;;;16.23;71.29;100393.41;685665;28;1706;-76
2023/08/07 00:50:19;;;;;;;0.80;0.60;;;;;;;16.18;71.28;100386.38;686962;28;2235;-77
2023/08/07 00:50:42;;;;;;;0.80;0.60;;;;;;;16.24;71.38;100393.41;687052;28;1809;-77
2023/08/07 00:51:04;;;;;;;0.80;0.60;;;;;;;16.20;71.22;100391.66;684510;28;1176;-76
2023/08/07 00:51:26;;;;;;;0.80;0.60;;;;;;;16.14;71.34;100383.75;685807;28;1917;-76
2023/08/07 00:51:48;;;;;;;0.80;0.60;;;;;;;16.18;71.30;100391.66;682714;28;1025;-77
2023/08/07 00:52:08;;;;;;;0.80;0.60;;;;;;;16.16;71.49;100392.53;685529;28;1066;-75
2023/08/07 00:52:29;;;;;;;0.80;0.60;;;;;;;16.06;71.41;100378.53;687559;28;1312;-75
2023/08/07 00:52:50;;;;;;;0.80;0.50;;;;;;;16.10;71.63;100387.28;688141;28;1440;-76
2023/08/07 00:53:11;;;;;;;0.80;0.50;;;;;;;16.19;71.68;100387.28;688141;28;1483;-76
2023/08/07 00:53:32;;;;;;;0.80;0.60;;;;;;;16.18;71.49;100398.69;688005;28;1161;-77
2023/08/07 00:53:52;;;;;;;0.80;0.60;;;;;;;16.13;71.50;100388.16;688416;28;1099;-77
2023/08/07 00:54:17;;;;;;;0.80;0.60;;;;;;;16.17;71.62;100387.25;687493;28;1190;-77
2023/08/07 00:54:38;;;;;;;0.80;0.60;;;;;;;16.16;71.72;100388.16;690543;28;1948;-77
2023/08/07 00:54:59;;;;;;;0.80;0.60;;;;;;;16.15;71.56;100380.25;683054;29;768;-77
2023/08/07 00:55:20;;;;;;;0.80;0.60;;;;;;;16.22;71.38;100389.03;688239;28;1181;-76
2023/08/07 00:55:42;;;;;;;0.80;0.60;;;;;;;16.17;71.60;100386.41;689384;28;2051;-77
2023/08/07 00:56:03;;;;;;;0.80;0.60;;;;;;;16.16;71.45;100389.88;685617;28;1348;-77
2023/08/07 00:56:26;;;;;;;0.80;0.60;;;;;;;16.18;71.41;100396.91;687486;28;1065;-77
2023/08/07 00:56:46;;;;;;;0.80;0.60;;;;;;;16.23;71.49;100389.00;685639;28;1981;-75
2023/08/07 00:57:12;;;;;;;0.80;0.60;;;;;;;16.23;71.58;100396.03;690814;28;1107;-77
2023/08/07 00:57:32;;;;;;;0.80;0.60;;;;;;;16.20;71.64;100383.75;682855;29;953;-76
2023/08/07 00:57:53;;;;;;;0.80;0.60;;;;;;;16.18;71.54;100382.88;691424;28;1830;-75
2023/08/07 00:58:14;;;;;;;0.80;0.60;;;;;;;16.15;71.57;100388.13;688744;28;1876;-75
2023/08/07 00:58:36;;;;;;;0.80;0.60;;;;;;;16.18;71.68;100391.66;690700;28;1014;-76
2023/08/07 00:58:59;;;;;;;1.80;0.80;;;;;;;16.16;71.66;100387.25;689087;28;1992;-75
2023/08/07 00:59:20;;;;;;;1.80;0.80;;;;;;;16.16;71.63;100382.88;689422;28;1268;-76
2023/08/07 00:59:42;;;;;;;1.80;0.80;;;;;;;16.25;71.59;100389.03;690771;28;1024;-78
2023/08/07 01:00:04;;;;;;;0.80;0.60;;;;;;;16.22;71.78;100391.66;688202;28;1138;-76
2023/08/07 01:00:26;;;;;;;0.80;0.60;;;;;;;16.24;71.49;100392.53;685405;28;1028;-76
2023/08/07 01:00:47;;;;;;;0.80;0.63;;;;;;;16.20;71.52;100383.75;687005;28;1375;-76
2023/08/07 01:01:08;;;;;;;0.80;0.60;;;;;;;16.17;71.61;100384.63;685341;28;1255;-75
2023/08/07 01:01:30;;;;;;;0.80;0.68;;;;;;;16.20;71.48;100388.13;687976;28;1063;-75
2023/08/07 01:01:51;;;;;;;0.80;0.60;;;;;;;16.18;71.65;100388.16;688161;28;1215;-77
2023/08/07 01:02:13;;;;;;;0.80;0.68;;;;;;;16.21;71.62;100395.19;693763;28;1099;-76
2023/08/07 01:02:34;;;;;;;0.80;0.60;;;;;;;16.24;71.56;100389.91;690565;28;1812;-76
2023/08/07 01:02:56;;;;;;;0.80;0.60;;;;;;;16.23;71.62;100402.16;688318;28;985;-76
2023/08/07 01:03:17;;;;;;;0.80;0.60;;;;;;;16.20;71.78;100391.66;682746;28;1538;-76
2023/08/07 01:03:37;;;;;;;0.80;0.60;;;;;;;16.23;71.75;100399.53;682367;29;1128;-76
2023/08/07 01:04:00;;;;;;;0.80;0.60;;;;;;;16.24;71.57;100390.78;685718;28;896;-77
2023/08/07 01:04:21;;;;;;;0.80;0.60;;;;;;;16.24;71.43;100387.25;685265;28;1115;-76
2023/08/07 01:05:09;;;;;;;0.80;0.60;;;;;;;16.37;71.28;100409.22;690408;28;1902;-77
2023/08/07 01:05:30;;;;;;;0.80;0.50;;;;;;;16.26;71.52;100398.69;685239;28;1237;-77
2023/08/07 01:05:51;;;;;;;0.80;0.60;;;;;;;16.20;71.61;100393.41;684579;28;2100;-77
2023/08/07 01:06:13;;;;;;;0.80;0.60;;;;;;;16.25;71.54;100396.94;683200;28;1426;-76
2023/08/07 01:06:34;;;;;;;0.80;0.60;;;;;;;16.22;71.62;100389.03;693217;28;979;-76
2023/08/07 01:06:55;;;;;;;0.80;0.60;;;;;;;16.28;71.57;100403.09;687735;28;1976;-76
2023/08/07 01:07:15;;;;;;;0.80;0.60;;;;;;;16.27;71.51;100397.81;686669;28;1313;-77
2023/08/07 01:07:36;;;;;;;0.80;0.50;;;;;;;16.22;71.79;100391.66;687901;28;1110;-77
2023/08/07 01:07:57;;;;;;;0.80;0.50;;;;;;;16.21;71.73;100400.44;685697;28;1505;-76
2023/08/07 01:08:18;;;;;;;0.80;0.57;;;;;;;16.20;71.76;100390.75;682653;28;1229;-76
2023/08/07 01:08:39;;;;;;;0.80;0.60;;;;;;;16.18;72.08;100399.53;690460;28;1333;-77
2023/08/07 01:09:00;;;;;;;0.80;0.60;;;;;;;16.23;71.75;100393.41;689956;28;1669;-78
2023/08/07 01:09:20;;;;;;;0.80;0.60;;;;;;;16.24;71.70;100401.31;684052;28;1138;-77
2023/08/07 01:09:41;;;;;;;0.80;0.60;;;;;;;16.33;71.70;100407.47;688698;28;1609;-77
2023/08/07 01:10:03;;;;;;;0.80;0.70;;;;;;;16.28;71.48;100403.09;686009;28;2012;-77
2023/08/07 01:10:35;;;;;;;0.80;0.70;;;;;;;16.28;71.69;100407.47;687958;28;1111;-77
2023/08/07 01:11:02;;;;;;;0.80;0.60;;;;;;;16.33;71.70;100410.13;685583;28;1067;-77
2023/08/07 01:11:53;;;;;;;0.80;0.60;;;;;;;16.21;71.67;100400.44;691457;28;1173;-78
2023/08/07 01:12:29;;;;;;;0.80;0.60;;;;;;;16.28;71.64;100402.19;687592;28;1956;-77
2023/08/07 01:13:04;;;;;;;0.80;0.60;;;;;;;16.30;71.55;100408.34;680162;28;1121;-79
2023/08/07 01:13:37;;;;;;;0.80;0.60;;;;;;;16.29;71.53;100404.84;690005;28;1186;-79
2023/08/07 01:14:05;;;;;;;0.80;0.60;;;;;;;16.22;71.58;100407.47;688239;28;783;-78
2023/08/07 01:14:54;;;;;;;0.80;0.60;;;;;;;16.23;71.66;100404.81;684616;28;1159;-77
2023/08/07 01:15:22;;;;;;;0.80;0.50;;;;;;;16.31;71.60;100412.75;685738;28;1129;-77
2023/08/07 01:15:43;;;;;;;0.80;0.60;;;;;;;16.31;71.74;100412.75;681924;28;1389;-77
2023/08/07 01:16:13;;;;;;;0.80;0.60;;;;;;;16.26;71.64;100409.22;688268;28;1482;-78
2023/08/07 01:16:36;;;;;;;0.80;0.60;;;;;;;16.36;71.64;100415.38;687223;28;1006;-77
2023/08/07 01:17:10;;;;;;;0.80;0.60;;;;;;;16.36;71.37;100402.19;685548;28;1458;-78
2023/08/07 01:17:33;;;;;;;0.80;0.60;;;;;;;16.38;71.11;100409.22;686148;28;2002;-77
2023/08/07 01:17:56;;;;;;;0.80;0.60;;;;;;;16.42;71.20;100405.69;682718;29;1945;-77
2023/08/07 01:18:17;;;;;;;0.80;0.60;;;;;;;16.39;71.21;100408.34;688070;28;1315;-77
2023/08/07 01:18:39;;;;;;;0.80;0.60;;;;;;;16.42;71.28;100410.09;693176;28;1484;-77
2023/08/07 01:19:02;;;;;;;0.80;0.55;;;;;;;16.35;71.53;100398.66;692520;28;1244;-77
2023/08/07 01:19:25;;;;;;;0.80;0.60;;;;;;;16.34;71.26;100407.47;693568;28;1209;-77
2023/08/07 01:19:47;;;;;;;0.80;0.60;;;;;;;16.32;71.41;100409.22;687918;28;1327;-76
2023/08/07 01:20:08;;;;;;;0.80;0.50;;;;;;;16.27;71.50;100400.44;685923;28;1300;-78
2023/08/07 01:20:29;;;;;;;0.80;0.60;;;;;;;16.30;71.48;100403.09;684766;28;1458;-77
2023/08/07 01:20:51;;;;;;;0.80;0.60;;;;;;;16.34;71.40;100411.88;680123;29;1042;-78
2023/08/07 01:21:21;;;;;;;0.80;0.50;;;;;;;16.34;71.48;100402.19;686859;28;1402;-76
2023/08/07 01:21:47;;;;;;;0.80;0.60;;;;;;;16.22;71.68;100397.78;687412;28;1353;-77
2023/08/07 01:22:10;;;;;;;0.80;0.60;;;;;;;16.31;71.40;100404.84;681200;28;1383;-77
2023/08/07 01:22:32;;;;;;;0.80;0.60;;;;;;;16.28;71.65;100400.44;690578;28;1232;-77
2023/08/07 01:22:53;;;;;;;0.80;0.60;;;;;;;16.34;71.52;100401.34;690942;28;1235;-77
2023/08/07 01:23:14;;;;;;;0.80;0.55;;;;;;;16.35;71.45;100403.94;688524;28;1847;-77
2023/08/07 01:23:34;;;;;;;0.80;0.50;;;;;;;16.34;71.33;100402.19;682424;29;1135;-77
2023/08/07 01:23:55;;;;;;;0.80;0.50;;;;;;;16.21;71.78;100411.84;690958;28;1152;-77
2023/08/07 01:24:15;;;;;;;0.80;0.50;;;;;;;16.22;71.78;100412.72;687899;28;1524;-77
2023/08/07 01:24:37;;;;;;;0.80;0.60;;;;;;;16.25;71.89;100402.22;693240;28;1912;-77
2023/08/07 01:24:58;;;;;;;0.80;0.60;;;;;;;16.23;71.73;100409.22;688227;28;792;-76
2023/08/07 01:25:19;;;;;;;0.80;0.60;;;;;;;16.22;72.08;100413.59;685236;28;1261;-76
2023/08/07 01:25:40;;;;;;;0.80;0.60;;;;;;;16.24;71.77;100400.44;679723;29;1097;-77
2023/08/07 01:26:01;;;;;;;0.80;0.60;;;;;;;16.21;71.77;100401.31;690921;28;1369;-76
2023/08/07 01:26:22;;;;;;;0.80;0.60;;;;;;;16.25;71.80;100413.63;693537;28;1209;-76
2023/08/07 01:26:45;;;;;;;0.80;0.55;;;;;;;16.24;72.04;100414.47;690745;28;959;-76
2023/08/07 01:27:17;;;;;;;0.80;0.60;;;;;;;16.28;71.79;100413.63;692434;28;1047;-77
2023/08/07 01:27:44;;;;;;;0.80;0.60;;;;;;;16.27;71.62;100416.25;687880;28;1449;-77
2023/08/07 01:28:24;;;;;;;0.80;0.60;;;;;;;16.30;71.76;100414.47;690368;28;896;-77
2023/08/07 01:29:12;;;;;;;0.80;0.60;;;;;;;16.25;71.82;100424.16;687956;28;1420;-77
2023/08/07 01:29:42;;;;;;;0.80;0.60;;;;;;;16.20;72.20;100414.47;694103;28;1048;-76
2023/08/07 01:30:17;;;;;;;0.80;0.60;;;;;;;16.23;71.95;100406.56;689556;28;1213;-77
2023/08/07 01:30:44;;;;;;;0.80;0.60;;;;;;;16.24;71.87;100408.31;689513;28;1100;-77
2023/08/07 01:31:11;;;;;;;0.80;0.60;;;;;;;16.22;71.87;100410.94;682985;28;1501;-78
2023/08/07 01:31:34;;;;;;;0.80;0.60;;;;;;;16.24;72.10;100424.13;685243;28;999;-77
2023/08/07 01:31:57;;;;;;;0.80;0.60;;;;;;;16.30;71.89;100417.13;688186;28;1444;-77
2023/08/07 01:32:32;;;;;;;0.80;0.52;;;;;;;16.25;71.64;100408.38;688175;28;1020;-77
2023/08/07 01:32:55;;;;;;;0.80;0.60;;;;;;;16.35;71.77;100414.47;682748;29;934;-78
2023/08/07 01:33:32;;;;;;;0.80;0.60;;;;;;;16.37;71.83;100415.38;686450;28;1240;-77
2023/08/07 01:34:04;;;;;;;0.80;0.60;;;;;;;16.32;71.58;100417.13;686567;28;1551;-77
2023/08/07 01:34:25;;;;;;;0.80;0.60;;;;;;;16.28;71.59;100413.63;685458;28;1128;-76
2023/08/07 01:34:48;;;;;;;0.80;0.50;;;;;;;16.14;71.88;100413.59;688422;28;1045;-77
2023/08/07 01:35:12;;;;;;;0.80;0.60;;;;;;;16.22;71.86;100413.59;689125;28;1451;-77
2023/08/07 01:35:38;;;;;;;0.80;0.60;;;;;;;16.27;71.88;100422.41;687862;28;1069;-78
2023/08/07 01:36:04;;;;;;;0.80;0.60;;;;;;;16.23;71.79;100409.22;688407;28;1063;-77
2023/08/07 01:36:28;;;;;;;0.80;0.50;;;;;;;16.31;71.73;100428.53;687211;28;1287;-77
2023/08/07 01:36:51;;;;;;;0.80;0.60;;;;;;;16.26;71.61;100414.50;685320;28;1168;-77
2023/08/07 01:37:13;;;;;;;0.80;0.50;;;;;;;16.25;71.70;100423.28;685705;28;1107;-78
2023/08/07 01:37:39;;;;;;;0.80;0.50;;;;;;;16.26;72.09;100419.75;687158;28;1997;-77
2023/08/07 01:38:01;;;;;;;0.80;0.60;;;;;;;16.25;71.80;100424.16;688298;28;1022;-78
2023/08/07 01:38:25;;;;;;;0.80;0.60;;;;;;;16.33;71.65;100426.78;687146;28;1048;-75
2023/08/07 01:38:48;;;;;;;0.80;0.60;;;;;;;16.28;71.69;100415.34;685327;28;2022;-77
2023/08/07 01:39:10;;;;;;;0.80;0.50;;;;;;;16.30;71.33;100421.53;690990;28;1087;-78
2023/08/07 01:39:31;;;;;;;0.80;0.60;;;;;;;16.32;71.65;100427.66;688371;28;968;-76
2023/08/07 01:39:53;;;;;;;1.30;0.80;;;;;;;16.35;71.55;100419.72;691010;28;1261;-77
2023/08/07 01:40:16;;;;;;;1.30;0.80;;;;;;;16.27;71.31;100411.88;688851;28;1466;-77
2023/08/07 01:40:39;;;;;;;0.90;0.57;;;;;;;16.31;71.37;100420.63;685576;28;1185;-77
2023/08/07 01:41:00;;;;;;;0.80;0.60;;;;;;;16.32;71.57;100414.50;683706;29;1294;-78
2023/08/07 01:41:21;;;;;;;0.80;0.52;;;;;;;16.29;71.40;100417.13;683423;29;1127;-76
2023/08/07 01:41:42;;;;;;;0.80;0.50;;;;;;;16.30;71.45;100409.22;686210;28;1077;-78
2023/08/07 01:42:04;;;;;;;0.80;0.50;;;;;;;16.26;71.51;100423.28;687244;28;1785;-77
2023/08/07 01:42:25;;;;;;;0.80;0.60;;;;;;;16.24;71.57;100425.00;696708;28;1047;-77
2023/08/07 01:42:47;;;;;;;0.80;0.60;;;;;;;16.31;71.58;100432.03;691836;28;1366;-77
2023/08/07 01:43:08;;;;;;;0.80;0.70;;;;;;;16.15;71.69;100432.88;689421;28;1020;-77
2023/08/07 01:43:30;;;;;;;0.80;0.65;;;;;;;16.11;72.09;100425.88;693649;28;1450;-77
2023/08/07 01:43:51;;;;;;;0.80;0.60;;;;;;;15.98;72.20;100425.03;691446;28;1326;-77
2023/08/07 01:44:12;;;;;;;0.80;0.60;;;;;;;16.03;72.45;100424.13;686673;28;1633;-77
2023/08/07 01:44:33;;;;;;;0.80;0.60;;;;;;;16.02;72.68;100418.88;683672;29;1913;-76
2023/08/07 01:44:54;;;;;;;0.80;0.60;;;;;;;16.00;72.56;100425.88;685453;28;1012;-76
2023/08/07 01:45:25;;;;;;;0.80;0.60;;;;;;;15.97;72.50;100424.13;689375;28;1072;-72
2023/08/07 01:45:46;;;;;;;0.80;0.60;;;;;;;16.06;72.78;100433.78;699585;28;1120;-75
2023/08/07 01:46:07;;;;;;;0.80;0.60;;;;;;;16.00;72.68;100423.25;699886;28;1113;-77
2023/08/07 01:46:27;;;;;;;0.80;0.70;;;;;;;16.00;72.65;100412.72;688907;28;1430;-76
2023/08/07 01:46:48;;;;;;;0.80;0.70;;;;;;;15.95;72.88;100425.00;685797;28;1187;-76
2023/08/07 01:47:08;;;;;;;0.80;0.68;;;;;;;15.99;72.63;100421.50;686006;28;1013;-75
2023/08/07 01:47:29;;;;;;;0.80;0.60;;;;;;;15.96;72.65;100414.50;691422;28;1061;-76
2023/08/07 01:47:50;;;;;;;0.80;0.60;;;;;;;16.05;72.73;100429.41;686399;28;1158;-76
2023/08/07 01:48:11;;;;;;;0.80;0.60;;;;;;;15.95;72.70;100414.47;686273;28;1142;-76